^^
Datos históricos de la estación: Murcia-Puente Tocinos
 
Diario Informe para Junio 29, 2022 Unidades:  Métrico    Ingés   Ambas
Diario Semanal Mensual Anual
  Actual: Máxima: Mínima: Promedio:
Temperatura: 27.3 °C 32.2 °C 21 °C 26.6 °C
Punto de rocio: 18.7 °C 20 °C 14.4 °C 17.8 °C
Humedad: 59.1% 85% 35.4% 61%
Velocidad viento: 9.6km/h 19km/h 0km/h 8.1km/h
Racha viento: 18.5km/h 37km/h - -
VientoEste - - ESE
Presión: 1009.6 hPa 1015.3 hPa 1009.3 hPa -
Precipitación: 0.0 mm      
 
 
Tabla de datos para Junio 29, 2022
Hora Temperatura Punto de rocio Presión Viento Velocidad viento Racha viento Humedad Intensidad lluvia(por hora) Nubes
01:29 23 °C 19.8 °C 1015.3 hPa NNE 8.4 km/h 24.1 km/h 82% 0.0 mm
01:34 22.9 °C 19.7 °C 1015.3 hPa NNE 7.2 km/h 24.1 km/h 82% 0.0 mm
01:39 22.9 °C 19.7 °C 1015.3 hPa NE 6.9 km/h 11.1 km/h 82% 0.0 mm
01:44 22.9 °C 19.8 °C 1015.2 hPa NE 6 km/h 9.5 km/h 82.6% 0.0 mm
01:49 22.9 °C 19.8 °C 1015.2 hPa NE 5.8 km/h 11.1 km/h 83% 0.0 mm
01:54 22.8 °C 19.8 °C 1015.2 hPa NE 6.3 km/h 11.1 km/h 83% 0.0 mm
01:59 22.8 °C 19.9 °C 1015.1 hPa NE 6.4 km/h 13 km/h 83.6% 0.0 mm
02:04 22.7 °C 19.9 °C 1015.1 hPa NNE 6.8 km/h 11.1 km/h 84% 0.0 mm
02:09 22.7 °C 19.8 °C 1015.1 hPa NE 6.9 km/h 8.4 km/h 84% 0.0 mm
02:14 22.7 °C 19.8 °C 1015.0 hPa NE 6 km/h 7.4 km/h 84% 0.0 mm
02:19 22.7 °C 19.9 °C 1015.0 hPa NE 5.8 km/h 9.5 km/h 84.4% 0.0 mm
02:24 22.7 °C 20 °C 1015.0 hPa NE 4.9 km/h 9.5 km/h 85% 0.0 mm
02:29 22.6 °C 19.9 °C 1014.9 hPa NNE 4.7 km/h 7.4 km/h 85% 0.0 mm
02:34 22.6 °C 19.9 °C 1014.9 hPa NNE 4 km/h 3.9 km/h 85% 0.0 mm
02:39 22.6 °C 19.9 °C 1014.9 hPa Este 3.9 km/h   85% 0.0 mm
02:44 22.6 °C 19.8 °C 1014.8 hPa NE 0.8 km/h 7.4 km/h 84.1% 0.0 mm
02:49 22.5 °C 19.7 °C 1014.8 hPa Calm   3.7 km/h 84% 0.0 mm
02:54 22.5 °C 19.6 °C 1014.8 hPa NNE 1.8 km/h 3.7 km/h 84% 0.0 mm
02:59 22.4 °C 19.6 °C 1014.6 hPa NNE 2.3 km/h   84% 0.0 mm
03:04 22.4 °C 19.6 °C 1014.6 hPa NNE 0.4 km/h 3.9 km/h 84% 0.0 mm
03:09 22.5 °C 19.7 °C 1014.6 hPa Calm   5.6 km/h 84% 0.0 mm
03:14 22.5 °C 19.7 °C 1014.6 hPa Este 1.7 km/h 5.6 km/h 84% 0.0 mm
03:19 22.5 °C 19.7 °C 1014.6 hPa Este 2.3 km/h 3.2 km/h 84% 0.0 mm
03:24 22.5 °C 19.7 °C 1014.6 hPa ENE 0.5 km/h 5.6 km/h 84% 0.0 mm
03:29 22.5 °C 19.7 °C 1014.4 hPa Calm   3.7 km/h 84% 0.0 mm
03:34 22.5 °C 19.7 °C 1014.4 hPa ESE 1.8 km/h   84% 0.0 mm
03:39 22.5 °C 19.7 °C 1014.4 hPa ESE 2.3 km/h   84% 0.0 mm
03:44 22.6 °C 19.8 °C 1014.3 hPa ESE 0.4 km/h 5.8 km/h 84% 0.0 mm
03:49 22.6 °C 19.8 °C 1014.3 hPa Calm   5.8 km/h 84% 0.0 mm
03:54 22.6 °C 19.8 °C 1014.3 hPa Oeste 2.6 km/h 5.6 km/h 84% 0.0 mm
03:59 22.6 °C 19.6 °C 1014.2 hPa Oeste 3.2 km/h   83.3% 0.0 mm
04:04 22.6 °C 19.6 °C 1014.2 hPa Oeste 0.5 km/h   83% 0.0 mm
04:09 22.5 °C 19.5 °C 1014.2 hPa Calm     83.2% 0.0 mm
04:14 22.4 °C 19.4 °C 1014.0 hPa Calm   5.8 km/h 83% 0.0 mm
04:19 22.4 °C 19.4 °C 1014.0 hPa Calm   4.7 km/h 83% 0.0 mm
04:24 22.3 °C 19.3 °C 1014.0 hPa Este 2.5 km/h 7.4 km/h 83% 0.0 mm
04:29 22.2 °C 19.2 °C 1014.0 hPa ESE 3.2 km/h 7.4 km/h 83% 0.0 mm
04:34 22.1 °C 19 °C 1014.0 hPa ESE 3.2 km/h 7.4 km/h 82.3% 0.0 mm
04:39 22 °C 18.7 °C 1014.0 hPa ESE 3.2 km/h 5.6 km/h 82% 0.0 mm
04:44 21.9 °C 18.7 °C 1013.9 hPa ESE 3 km/h 7.4 km/h 82% 0.0 mm
04:49 21.9 °C 18.5 °C 1013.9 hPa Este 2.9 km/h 7.6 km/h 81.5% 0.0 mm
04:54 21.8 °C 18.4 °C 1013.9 hPa Este 3.1 km/h 7.4 km/h 81% 0.0 mm
04:59 21.7 °C 18.2 °C 1013.9 hPa Este 3.2 km/h 7.4 km/h 80.4% 0.0 mm
05:04 21.6 °C 18 °C 1013.9 hPa ESE 4.4 km/h 7.6 km/h 80% 0.0 mm
05:09 21.5 °C 17.9 °C 1013.9 hPa ESE 4.7 km/h 7.4 km/h 80% 0.0 mm
05:14 21.6 °C 18 °C 1013.8 hPa ESE 3.5 km/h 4.7 km/h 80% 0.0 mm
05:19 21.6 °C 18 °C 1013.8 hPa ESE 3.2 km/h 5 km/h 80% 0.0 mm
05:24 21.7 °C 18 °C 1013.9 hPa Este 3 km/h 8.4 km/h 79.8% 0.0 mm
05:29 21.6 °C 17.8 °C 1013.9 hPa ESE 2.9 km/h 9.3 km/h 79% 0.0 mm
05:34 21.6 °C 17.8 °C 1013.9 hPa ESE 4.3 km/h 7.4 km/h 79% 0.0 mm
05:39 21.6 °C 17.8 °C 1013.9 hPa Este 4.7 km/h 7.4 km/h 79% 0.0 mm
05:44 21.5 °C 17.5 °C 1013.9 hPa Este 3.5 km/h 9.5 km/h 78.2% 0.0 mm
05:49 21.3 °C 17.3 °C 1013.9 hPa ESE 3.2 km/h 7.4 km/h 78% 0.0 mm
05:54 21.3 °C 17.3 °C 1013.9 hPa SE 4.4 km/h 7.4 km/h 78% 0.0 mm
05:59 21.3 °C 17.4 °C 1013.9 hPa SE 4.7 km/h 7.4 km/h 78% 0.0 mm
06:04 21.4 °C 17.4 °C 1013.9 hPa ESE 3.2 km/h 3.9 km/h 78% 0.0 mm
06:09 21.3 °C 17.3 °C 1013.9 hPa ENE 2.9 km/h 7.4 km/h 77.7% 0.0 mm
06:14 21.3 °C 17.3 °C 1013.9 hPa NE 3.1 km/h 5.6 km/h 78% 0.0 mm
06:19 21.2 °C 17.3 °C 1013.9 hPa Este 3.2 km/h 7.4 km/h 78.2% 0.0 mm
06:24 21.2 °C 17.4 °C 1014.0 hPa ENE 3.2 km/h 7.4 km/h 79% 0.0 mm
06:29 21.2 °C 17.6 °C 1014.0 hPa ENE 3.2 km/h 5.6 km/h 79.8% 0.0 mm
06:34 21.3 °C 17.8 °C 1014.0 hPa ENE 3 km/h 5.6 km/h 80.4% 0.0 mm
06:39 21.3 °C 17.9 °C 1014.0 hPa ENE 2.9 km/h   81% 0.0 mm
06:44 21.3 °C 17.8 °C 1014.0 hPa ENE 0.5 km/h   80.7% 0.0 mm
06:49 21.2 °C 17.7 °C 1014.0 hPa Calm   6.4 km/h 80.1% 0.0 mm
06:54 21.1 °C 17.6 °C 1014.1 hPa ONO 2.4 km/h 7.4 km/h 80.5% 0.0 mm
06:59 21 °C 17.7 °C 1014.1 hPa ONO 2.9 km/h 5.8 km/h 81% 0.0 mm
07:04 21 °C 17.6 °C 1014.1 hPa ONO 3.2 km/h 5.8 km/h 81% 0.0 mm
07:09 21.1 °C 17.7 °C 1014.1 hPa Oeste 3.2 km/h 7.4 km/h 81% 0.0 mm
07:14 21.1 °C 17.8 °C 1014.0 hPa Oeste 3.2 km/h 7.4 km/h 81% 0.0 mm
07:19 21.2 °C 17.8 °C 1014.0 hPa Oeste 3.2 km/h 4.7 km/h 80.9% 0.0 mm
07:24 21.3 °C 17.7 °C 1014.2 hPa Oeste 3 km/h 5.6 km/h 80% 0.0 mm
07:29 21.4 °C 17.7 °C 1014.2 hPa OSO 2.9 km/h 9.3 km/h 79.8% 0.0 mm
07:34 21.4 °C 17.7 °C 1014.2 hPa Sur 3.7 km/h 7.4 km/h 79% 0.0 mm
07:39 21.6 °C 17.7 °C 1014.2 hPa Sur 3.9 km/h 7.4 km/h 78.5% 0.0 mm
07:44 21.7 °C 17.7 °C 1014.1 hPa SSE 3.9 km/h 7.4 km/h 78% 0.0 mm
07:49 21.8 °C 17.7 °C 1014.1 hPa SSE 3.9 km/h 7.6 km/h 77.5% 0.0 mm
07:54 21.9 °C 17.7 °C 1014.1 hPa SSE 4.5 km/h 8.4 km/h 77% 0.0 mm
07:59 22 °C 17.7 °C 1014.1 hPa SSE 4.7 km/h 7.6 km/h 77% 0.0 mm
08:04 22.1 °C 17.9 °C 1014.1 hPa SSE 4.9 km/h 7.4 km/h 77% 0.0 mm
08:09 22.2 °C 17.9 °C 1014.1 hPa Sur 5 km/h 7.4 km/h 76.6% 0.0 mm
08:14 22.3 °C 17.9 °C 1014.1 hPa SSO 4.1 km/h 5.6 km/h 76% 0.0 mm
08:19 22.4 °C 18.1 °C 1014.1 hPa Sur 3.9 km/h 5.6 km/h 76.6% 0.0 mm
08:24 22.8 °C 18.3 °C 1014.1 hPa NNO 0.8 km/h 7.4 km/h 76.1% 0.0 mm
08:29 23.1 °C 18.4 °C 1014.0 hPa Calm   5.8 km/h 74.8% 0.0 mm
08:34 23.3 °C 18.4 °C 1014.0 hPa NNO 2.5 km/h 5.8 km/h 74.3% 0.0 mm
08:39 23.5 °C 18.5 °C 1014.0 hPa NNE 3.2 km/h 7.4 km/h 73.3% 0.0 mm
08:44 23.8 °C 18.6 °C 1014.0 hPa NE 3 km/h 3.7 km/h 72.8% 0.0 mm
08:49 24.1 °C 18.6 °C 1014.0 hPa NE 2.9 km/h 5.8 km/h 71.6% 0.0 mm
08:54 24.3 °C 18.7 °C 1014.0 hPa NE 2.4 km/h 8.4 km/h 70.6% 0.0 mm
08:59 24.5 °C 18.5 °C 1014.0 hPa NE 2.3 km/h 8.4 km/h 69.2% 0.0 mm
09:04 24.4 °C 18.6 °C 1014.0 hPa NNO 3.6 km/h 7.6 km/h 70% 0.0 mm
09:09 24.5 °C 18.7 °C 1014.0 hPa North 3.9 km/h 7.4 km/h 70.5% 0.0 mm
09:14 24.7 °C 18.7 °C 1014.0 hPa NNE 3.3 km/h 7.4 km/h 69.6% 0.0 mm
09:19 24.7 °C 18.7 °C 1014.0 hPa North 3.2 km/h 7.4 km/h 69.3% 0.0 mm
09:24 24.7 °C 18.8 °C 1014.0 hPa NNO 3.2 km/h 7.4 km/h 70% 0.0 mm
09:29 24.7 °C 18.8 °C 1013.9 hPa North 3.2 km/h 7.4 km/h 69.9% 0.0 mm
09:34 24.8 °C 18.8 °C 1013.9 hPa NNE 3.2 km/h 7.6 km/h 69.2% 0.0 mm
09:39 24.8 °C 18.7 °C 1013.9 hPa NE 3.2 km/h 7.6 km/h 68.7% 0.0 mm
09:44 24.9 °C 18.7 °C 1013.9 hPa ESE 4.4 km/h 7.4 km/h 68.4% 0.0 mm
09:49 25 °C 18.7 °C 1013.9 hPa ESE 4.7 km/h 5.8 km/h 68% 0.0 mm
09:54 25.2 °C 18.6 °C 1013.9 hPa North 3.5 km/h 8.4 km/h 67.3% 0.0 mm
09:59 25.2 °C 18.5 °C 1013.8 hPa NO 3.2 km/h 8.4 km/h 66.4% 0.0 mm
10:04 25.3 °C 18.5 °C 1013.8 hPa ONO 3.8 km/h 9.3 km/h 66% 0.0 mm
10:09 25.3 °C 18.5 °C 1013.8 hPa NO 3.9 km/h 7.4 km/h 66% 0.0 mm
10:14 25.3 °C 18.6 °C 1013.7 hPa NO 3.9 km/h 5.6 km/h 66.3% 0.0 mm
10:19 25.6 °C 18.8 °C 1013.7 hPa Sur 3.9 km/h 7.4 km/h 66% 0.0 mm
10:24 25.8 °C 18.7 °C 1013.7 hPa North 3.1 km/h 11.1 km/h 64.9% 0.0 mm
10:29 26 °C 18.7 °C 1013.6 hPa ENE 2.9 km/h 9.5 km/h 64.2% 0.0 mm
10:34 26.1 °C 18.8 °C 1013.6 hPa ENE 5.2 km/h 7.4 km/h 64% 0.0 mm
10:39 26.2 °C 18.7 °C 1013.6 hPa SSE 5.8 km/h 7.6 km/h 63.4% 0.0 mm
10:44 26.3 °C 18.8 °C 1013.4 hPa SSO 3.5 km/h 7.6 km/h 63.4% 0.0 mm
10:49 26.7 °C 18.9 °C 1013.4 hPa Este 2.9 km/h 7.4 km/h 62.3% 0.0 mm
10:54 26.9 °C 19 °C 1013.4 hPa Oeste 3.7 km/h 9.5 km/h 61.9% 0.0 mm
10:59 27.1 °C 18.8 °C 1013.4 hPa Este 3.9 km/h 13 km/h 60.6% 0.0 mm
11:04 27.2 °C 18.7 °C 1013.4 hPa ESE 5.5 km/h 9.5 km/h 59.8% 0.0 mm
11:09 27.3 °C 18.8 °C 1013.4 hPa NNO 5.8 km/h 12.2 km/h 59.8% 0.0 mm
11:14 27.3 °C 18.7 °C 1013.2 hPa NE 4.9 km/h 13 km/h 59.3% 0.0 mm
11:19 27.4 °C 18.7 °C 1013.2 hPa ENE 4.7 km/h 13 km/h 59.1% 0.0 mm
11:24 27.6 °C 18.8 °C 1013.2 hPa NE 4.9 km/h 11.1 km/h 58.8% 0.0 mm
11:29 27.7 °C 18.7 °C 1013.1 hPa NNO 5 km/h 11.1 km/h 58% 0.0 mm
11:34 27.8 °C 18.7 °C 1013.1 hPa NNE 6.1 km/h 14.8 km/h 57.6% 0.0 mm
11:39 28.1 °C 18.5 °C 1013.1 hPa NE 6.4 km/h 13 km/h 56.2% 0.0 mm
11:44 28.2 °C 18.3 °C 1013.1 hPa North 6.4 km/h 10 km/h 55.2% 0.0 mm
11:49 28.3 °C 18.1 °C 1013.1 hPa NNE 6.4 km/h 9.5 km/h 53.8% 0.0 mm
11:54 28.7 °C 17.8 °C 1013.1 hPa NNE 5 km/h 14.8 km/h 51.7% 0.0 mm
11:59 28.8 °C 17.4 °C 1013.1 hPa NE 4.7 km/h 14.8 km/h 50% 0.0 mm
12:04 28.8 °C 17.6 °C 1013.1 hPa NNE 7.1 km/h 14.8 km/h 50.8% 0.0 mm
12:09 28.8 °C 17.9 °C 1013.1 hPa North 7.6 km/h 11.1 km/h 52% 0.0 mm
12:14 29.1 °C 18.1 °C 1012.9 hPa NE 7.1 km/h 14.8 km/h 51.7% 0.0 mm
12:19 29.3 °C 18.2 °C 1012.9 hPa ENE 6.9 km/h 18.5 km/h 51.1% 0.0 mm
12:24 29.4 °C 18.3 °C 1012.9 hPa NNE 6.9 km/h 14.8 km/h 51.3% 0.0 mm
12:29 29.7 °C 18.5 °C 1012.7 hPa ENE 6.9 km/h 14.8 km/h 51% 0.0 mm
12:34 29.8 °C 18.6 °C 1012.7 hPa NE 6.9 km/h 14.8 km/h 50.9% 0.0 mm
12:39 29.9 °C 18.3 °C 1012.7 hPa NNE 6.9 km/h 19 km/h 50% 0.0 mm
12:44 30 °C 18.5 °C 1012.6 hPa NE 8.3 km/h 18.5 km/h 50% 0.0 mm
12:49 30.2 °C 18.4 °C 1012.6 hPa ENE 8.7 km/h 14.8 km/h 49.3% 0.0 mm
12:54 30.3 °C 18.2 °C 1012.6 hPa NE 8.4 km/h 19 km/h 48.3% 0.0 mm
12:59 30.3 °C 18 °C 1012.5 hPa NNE 8.4 km/h 18.5 km/h 47.8% 0.0 mm
13:04 30.4 °C 18 °C 1012.5 hPa NE 9.8 km/h 19 km/h 47.6% 0.0 mm
13:09 30.6 °C 18.2 °C 1012.5 hPa ENE 10 km/h 13 km/h 47.4% 0.0 mm
13:14 30.9 °C 17.2 °C 1012.4 hPa SSE 8 km/h 14.8 km/h 43.8% 0.0 mm
13:19 31.1 °C 16 °C 1012.4 hPa SE 7.6 km/h 19.8 km/h 40.2% 0.0 mm
13:24 31.2 °C 15.9 °C 1012.4 hPa SE 9.5 km/h 28.2 km/h 39.7% 0.0 mm
13:29 31.2 °C 15.6 °C 1012.2 hPa Este 10 km/h 13 km/h 39.1% 0.0 mm
13:34 31.3 °C 15.3 °C 1012.2 hPa SE 9.6 km/h 15.6 km/h 38.1% 0.0 mm
13:39 31.4 °C 14.8 °C 1012.2 hPa SE 9.5 km/h 16.7 km/h 36.5% 0.0 mm
13:44 31.4 °C 14.6 °C 1011.9 hPa SE 9.9 km/h 16.7 km/h 36.1% 0.0 mm
13:49 31.5 °C 14.6 °C 1011.9 hPa Sur 10 km/h 13 km/h 36% 0.0 mm
13:54 31.5 °C 14.4 °C 1011.9 hPa SE 8.7 km/h 16.7 km/h 35.4% 0.0 mm
13:59 31.6 °C 14.5 °C 1011.7 hPa SE 8.4 km/h 19.8 km/h 35.6% 0.0 mm
14:04 31.6 °C 15.4 °C 1011.7 hPa Este 9.7 km/h 20.4 km/h 37.7% 0.0 mm
14:09 31.8 °C 15.1 °C 1011.7 hPa ESE 10 km/h 18.5 km/h 36.4% 0.0 mm
14:14 32 °C 15.2 °C 1011.6 hPa Este 7.5 km/h 19.8 km/h 36.4% 0.0 mm
14:19 32.2 °C 16 °C 1011.6 hPa ESE 6.9 km/h 25.9 km/h 37.7% 0.0 mm
14:24 32.2 °C 15.3 °C 1011.6 hPa SE 9.5 km/h 29.6 km/h 36.1% 0.0 mm
14:29 31.8 °C 15 °C 1011.6 hPa ESE 10.3 km/h 29.6 km/h 36.1% 0.0 mm
14:34 31.7 °C 15.1 °C 1011.6 hPa ESE 14.5 km/h 29.1 km/h 36.7% 0.0 mm
14:39 31.6 °C 14.9 °C 1011.6 hPa ESE 15.6 km/h 29.6 km/h 36.6% 0.0 mm
14:44 31.7 °C 15.3 °C 1011.5 hPa ESE 16.2 km/h 25.9 km/h 37.4% 0.0 mm
14:49 31.7 °C 15.6 °C 1011.5 hPa ESE 16.4 km/h 24.1 km/h 38% 0.0 mm
14:54 31.7 °C 15.5 °C 1011.5 hPa SE 14.5 km/h 29.6 km/h 37.7% 0.0 mm
14:59 31.6 °C 15.5 °C 1011.4 hPa SE 14 km/h 31.5 km/h 38% 0.0 mm
15:04 31.4 °C 15.5 °C 1011.4 hPa ESE 16.8 km/h 27.8 km/h 38.2% 0.0 mm
15:09 31.5 °C 15.8 °C 1011.4 hPa SE 17.2 km/h 25.9 km/h 38.9% 0.0 mm
15:14 31.6 °C 15.8 °C 1011.2 hPa ESE 15.3 km/h 31.5 km/h 38.6% 0.0 mm
15:19 31.4 °C 15.8 °C 1011.2 hPa ESE 14.8 km/h 35.2 km/h 39% 0.0 mm
15:24 31.2 °C 16 °C 1011.2 hPa ESE 17.6 km/h 27.8 km/h 39.9% 0.0 mm
15:29 31.2 °C 16.1 °C 1011.2 hPa SE 18.3 km/h 33.5 km/h 40.3% 0.0 mm
15:34 31 °C 16.3 °C 1011.2 hPa ESE 17.5 km/h 35.2 km/h 41.4% 0.0 mm
15:39 31.1 °C 16.6 °C 1011.2 hPa ESE 17.2 km/h 25.9 km/h 41.8% 0.0 mm
15:44 31.3 °C 16.5 °C 1011.1 hPa SE 16.3 km/h 27.8 km/h 40.9% 0.0 mm
15:49 31.4 °C 16.3 °C 1011.1 hPa ESE 16.1 km/h 37 km/h 40.3% 0.0 mm
15:54 31.2 °C 16.4 °C 1011.1 hPa ESE 17 km/h 37 km/h 41.1% 0.0 mm
15:59 31.2 °C 16.4 °C 1011.1 hPa ESE 17.2 km/h 27.8 km/h 41% 0.0 mm
16:04 31.3 °C 16.5 °C 1011.1 hPa ESE 15.8 km/h 29.6 km/h 41% 0.0 mm
16:09 31.3 °C 16.2 °C 1011.1 hPa ESE 15.6 km/h 27.4 km/h 40.3% 0.0 mm
16:14 31.3 °C 16.1 °C 1010.8 hPa ESE 16 km/h 27.8 km/h 40% 0.0 mm
16:19 31.2 °C 16.2 °C 1010.8 hPa ESE 16.1 km/h 29.1 km/h 40.4% 0.0 mm
16:24 31.1 °C 16.2 °C 1010.8 hPa ESE 16.4 km/h 31.7 km/h 40.9% 0.0 mm
16:29 30.9 °C 16.4 °C 1010.8 hPa ESE 16.4 km/h 31.5 km/h 41.8% 0.0 mm
16:34 30.8 °C 16.6 °C 1010.8 hPa SE 18 km/h 27.8 km/h 42.4% 0.0 mm
16:39 30.9 °C 16.6 °C 1010.8 hPa ESE 18.3 km/h 29.6 km/h 42.1% 0.0 mm
16:44 30.9 °C 16.9 °C 1010.6 hPa ESE 16.1 km/h 26.2 km/h 43% 0.0 mm
16:49 30.8 °C 16.7 °C 1010.6 hPa ESE 15.6 km/h 33.5 km/h 43% 0.0 mm
16:54 30.7 °C 16.8 °C 1010.6 hPa ESE 16.9 km/h 29.6 km/h 43.5% 0.0 mm
16:59 30.5 °C 16.9 °C 1010.6 hPa ESE 17.2 km/h 29.8 km/h 44% 0.0 mm
17:04 30.5 °C 16.8 °C 1010.6 hPa ESE 18.7 km/h 29.6 km/h 43.8% 0.0 mm
17:09 30.7 °C 17 °C 1010.6 hPa ESE 19 km/h 28.2 km/h 43.8% 0.0 mm
17:14 30.8 °C 16.5 °C 1010.4 hPa SE 16.3 km/h 27.8 km/h 42% 0.0 mm
17:19 30.8 °C 16.4 °C 1010.4 hPa SE 15.6 km/h 26.2 km/h 42% 0.0 mm
17:24 30.8 °C 15.8 °C 1010.4 hPa SE 16 km/h 29.6 km/h 40.3% 0.0 mm
17:29 31 °C 15.6 °C 1010.3 hPa SE 16.1 km/h 26.2 km/h 39.3% 0.0 mm
17:34 31 °C 15.1 °C 1010.3 hPa ESE 15 km/h 28.6 km/h 38.3% 0.0 mm
17:39 31.2 °C 15.2 °C 1010.3 hPa ESE 14.8 km/h 30.6 km/h 38.1% 0.0 mm
17:44 31.1 °C 15 °C 1010.1 hPa SE 14.8 km/h 25.9 km/h 37.9% 0.0 mm
17:49 31 °C 15.4 °C 1010.1 hPa SE 14.8 km/h 24.5 km/h 38.9% 0.0 mm
17:54 31.1 °C 15.1 °C 1010.1 hPa SE 14.8 km/h 22.2 km/h 38% 0.0 mm
17:59 31.1 °C 15.6 °C 1009.9 hPa SE 14.8 km/h 25.9 km/h 39.1% 0.0 mm
18:04 30.9 °C 15.9 °C 1009.9 hPa SE 14.8 km/h 27.8 km/h 40.4% 0.0 mm
18:09 30.8 °C 16 °C 1009.9 hPa SE 14.8 km/h 29.6 km/h 41% 0.0 mm
18:14 30.7 °C 16.6 °C 1009.9 hPa SE 15.5 km/h 26.2 km/h 42.6% 0.0 mm
18:19 30.6 °C 16.9 °C 1009.9 hPa ESE 15.6 km/h 31.7 km/h 43.9% 0.0 mm
18:24 30.4 °C 17.1 °C 1009.9 hPa ESE 16 km/h 31.5 km/h 44.9% 0.0 mm
18:29 30.4 °C 17.2 °C 1009.7 hPa SE 16.1 km/h 24.1 km/h 45.3% 0.0 mm
18:34 30.5 °C 17.2 °C 1009.7 hPa SE 14.2 km/h 23.7 km/h 45.1% 0.0 mm
18:39 30.3 °C 17.2 °C 1009.7 hPa ESE 13.7 km/h 29.6 km/h 45.2% 0.0 mm
18:44 30.3 °C 17.3 °C 1009.6 hPa SE 14.6 km/h 29.8 km/h 45.7% 0.0 mm
18:49 30.1 °C 17.3 °C 1009.6 hPa SE 14.8 km/h 29.6 km/h 46.2% 0.0 mm
18:54 29.8 °C 17.3 °C 1009.6 hPa SE 15.8 km/h 31.7 km/h 47% 0.0 mm
18:59 29.8 °C 17.4 °C 1009.5 hPa SE 16.1 km/h 26.2 km/h 47.4% 0.0 mm
19:04 29.7 °C 17.5 °C 1009.5 hPa SE 15 km/h 26.2 km/h 48% 0.0 mm
19:09 29.7 °C 17.8 °C 1009.5 hPa SE 14.8 km/h 26.2 km/h 49% 0.0 mm
19:14 29.7 °C 17.8 °C 1009.5 hPa ESE 14.2 km/h 25.9 km/h 48.9% 0.0 mm
19:19 29.5 °C 17.8 °C 1009.5 hPa ESE 14 km/h 26.2 km/h 49.6% 0.0 mm
19:24 29.2 °C 18.1 °C 1009.5 hPa SE 15.9 km/h 25.9 km/h 51.2% 0.0 mm
19:29 29.2 °C 18.3 °C 1009.4 hPa ESE 16.4 km/h 31.5 km/h 52% 0.0 mm
19:34 29.2 °C 18.3 °C 1009.4 hPa ESE 15.8 km/h 24.1 km/h 52% 0.0 mm
19:39 29.2 °C 18.4 °C 1009.4 hPa ESE 15.6 km/h 29.6 km/h 52% 0.0 mm
19:44 29 °C 18.4 °C 1009.3 hPa SE 14.3 km/h 29.6 km/h 52.9% 0.0 mm
19:49 29 °C 18.4 °C 1009.3 hPa ESE 14 km/h 23.7 km/h 52.8% 0.0 mm
19:54 28.9 °C 18.2 °C 1009.4 hPa ESE 13.2 km/h 24.1 km/h 52.7% 0.0 mm
19:59 28.7 °C 18.4 °C 1009.4 hPa ESE 13 km/h 25.9 km/h 53.6% 0.0 mm
20:04 28.7 °C 18.5 °C 1009.4 hPa ESE 13.9 km/h 21.7 km/h 54% 0.0 mm
20:09 28.7 °C 18.3 °C 1009.5 hPa ESE 14 km/h 25.9 km/h 53.6% 0.0 mm
20:14 28.4 °C 18.1 °C 1009.5 hPa ESE 14 km/h 24.1 km/h 53.5% 0.0 mm
20:19 28.3 °C 17.9 °C 1009.5 hPa ESE 14 km/h 25.9 km/h 53.3% 0.0 mm
20:24 28.2 °C 17.9 °C 1009.5 hPa ESE 14.7 km/h 25.9 km/h 53.4% 0.0 mm
20:29 28.2 °C 18 °C 1009.5 hPa ESE 14.8 km/h 24.5 km/h 54% 0.0 mm
20:34 28.1 °C 18 °C 1009.5 hPa ESE 14.2 km/h 23.3 km/h 54.2% 0.0 mm
20:39 28 °C 18.2 °C 1009.5 hPa ESE 14 km/h 24.1 km/h 55.3% 0.0 mm
20:44 28 °C 18.4 °C 1009.5 hPa Este 12.7 km/h 20.4 km/h 56.2% 0.0 mm
20:49 27.9 °C 18.7 °C 1009.5 hPa Este 12.2 km/h 20.4 km/h 57.1% 0.0 mm
20:54 27.8 °C 18.7 °C 1009.6 hPa Este 10.7 km/h 18.5 km/h 58% 0.0 mm
20:59 27.7 °C 18.7 °C 1009.6 hPa ESE 10.3 km/h 18.5 km/h 58.2% 0.0 mm
21:04 27.6 °C 18.9 °C 1009.6 hPa Este 10.1 km/h 20.4 km/h 59% 0.0 mm
21:09 27.5 °C 18.7 °C 1009.6 hPa Este 10 km/h 20.4 km/h 59% 0.0 mm
21:14 27.3 °C 18.7 °C 1009.6 hPa Este 9.6 km/h 18.5 km/h 59.1% 0.0 mm
Murcia-Puente Tocinos, Espa?a
Compliments of Weather Underground - 2.75 mb

La estación de MeteoMurcia.com, publica sus datos en los siguientes proyectos:

Weather Underground PWS IMURCIAP2 Meteoclimatic www.awekas.at

W3Counter
Web Analytics